KELP

El Paso International Airport

El Paso, Texas, USA
KELP 210542Z 2106/2206 10007KT P6SM FEW150 SCT250 FM210900 26005KT P6SM SKC FM211600 13007KT P6SM FEW150
Issued Valid From Valid To
Jul-21 @ 05:42 UTC
(4 hours ago)
Jul-21 @ 06:00 UTC
(4 hours ago)
Jul-22 @ 06:00 UTC
(in 20 hours)
Expired Click to View Jul-21 @ 06:00 to Jul-21 @ 09:00
KELP 210542Z 2106/2206 10007KT P6SM FEW150 SCT250
Wind Visibility Clouds
100° at 7 knots Greater than 6 miles
  • Few at 15,000' AGL
  • Scattered at 25,000' AGL
From Jul-21 @ 09:00 to Jul-21 @ 16:00
FM210900 26005KT P6SM SKC
Wind Visibility Clouds
260° at 5 knots Greater than 6 miles
  • Clear skies
From Jul-21 @ 16:00 to Jul-22 @ 06:00
FM211600 13007KT P6SM FEW150
Wind Visibility Clouds
130° at 7 knots Greater than 6 miles
  • Few at 15,000' AGL
KELP 210542Z 2106/2206 10007KT P6SM FEW150 SCT250 FM210900 26005KT P6SM SKC FM211600 13007KT P6SM FEW150
Issued Jul-21 @ 05:42 UTC
(4 hours ago)
Valid From Jul-21 @ 06:00 UTC
(4 hours ago)
Valid To Jul-22 @ 06:00 UTC
(in 20 hours)
Jul-21 @ 06:00 - Jul-21 @ 09:00
Wind Visibility
100° at 7 knots Greater than 6 miles
Clouds
  • Few at 15,000' AGL
  • Scattered at 25,000' AGL
From Jul-21 @ 09:00 - Jul-21 @ 16:00
Wind Visibility
260° at 5 knots Greater than 6 miles
Clouds
  • Clear skies
From Jul-21 @ 16:00 - Jul-22 @ 06:00
Wind Visibility
130° at 7 knots Greater than 6 miles
Clouds
  • Few at 15,000' AGL